Terminal Aerodrome Forecast
Issued by NWS

Home | Current Version | Previous Version | Text Only | Print | Product List | Glossary On
Versions: 1 2 3 4 5 6 7 8 9 10 11 12 13 14 15 16 17 18
292
FTUS44 KLIX 231740
TAFMCB
TAF
KMCB 231740Z 2318/2418 18012G20KT P6SM VCSH OVC015
      TEMPO 2318/2322 4SM -TSRA OVC020CB
     FM240000 19007KT P6SM BKN110
     FM240800 VRB03KT P6SM OVC015
     FM241600 20011KT P6SM VCSH SCT020 BKN035=

USA.gov is the U.S. government's official web portal to all federal, state and local government web resources and services.